Weather observations for the past three days for
Clinton, Clinton Regional Airport
Imperial (Metric)
Date Time (cdt) Wind (mph) Vis. (mi.) Weather Sky Cond. Temperature (ºF) Relative Humidity Wind Chill (°F) Heat Index (°F) Pressure Precipitation (in)
Air Dwpt 6 hour altimeter (in) sea level (mb) 1 hr 3 hr 6 hr
Max. Min.
05 08:15 S 5 10.00 Fair CLR 77 62.6 61% 79 29.98 0.0
05 06:55 S 7 10.00 Fair CLR 75.2 62.6 65% 77 29.97 0.0
05 06:35 S 7 10.00 Fair CLR 77 62.6 61% 79 29.97 0.0
05 06:15 S 8 10.00 Fair CLR 77 62.6 61% 79 29.97 0.0
05 05:55 S 8 10.00 Fair CLR 77 62.6 61% 79 29.97 0.0
05 05:35 S 8 10.00 Fair CLR 77 62.6 61% 79 29.97 0.0
05 05:15 SE 7 10.00 Fair CLR 77 62.6 61% 79 29.97 0.0
05 04:55 SE 6 10.00 Fair CLR 78.8 62.6 58% 80 29.97 0.0
05 04:35 SE 6 10.00 Fair CLR 78.8 62.6 58% 80 29.97 0.0
05 04:15 SE 6 10.00 Fair CLR 78.8 62.6 58% 80 29.97 0.0
05 03:55 S 6 10.00 Fair CLR 78.8 62.6 58% 80 29.97 0.0
05 03:35 S 6 10.00 Fair CLR 78.8 62.6 58% 80 29.96 0.0
05 03:15 S 6 10.00 Fair CLR 78.8 62.6 58% 80 29.96 0.0
05 02:55 S 7 10.00 Fair CLR 80.6 62.6 54% 82 29.96 0.0
05 02:35 S 7 10.00 Fair CLR 80.6 62.6 54% 82 29.96 0.0
05 02:15 S 8 10.00 Fair CLR 82.4 62.6 51% 83 29.96 0.0
05 01:55 S 9 10.00 Fair CLR 82.4 62.6 51% 83 29.95 0.0
05 01:35 S 12 10.00 Fair CLR 82.4 60.8 48% 83 29.95 0.0
05 01:15 S 12 10.00 Fair CLR 82.4 60.8 48% 83 29.94 0.0
05 00:55 S 12 10.00 Fair CLR 82.4 60.8 48% 83 29.95 0.0
05 00:35 SE 10 10.00 Fair CLR 84.2 60.8 45% 84 29.95 0.0
05 00:15 SE 10 10.00 Fair CLR 84.2 60.8 45% 84 29.96 0.0
04 23:55 S 10 10.00 Fair CLR 86 60.8 43% 86 29.95 0.0
04 23:35 SE 9 10.00 Fair CLR 86 59 40% 85 29.95 0.0
04 23:15 S 10 10.00 Fair CLR 87.8 60.8 40% 88 29.95 0.0
04 22:55 S 12 10.00 Fair CLR 87.8 60.8 40% 88 29.95 0.0
04 22:35 SE 12 10.00 Fair CLR 87.8 60.8 40% 88 29.94 0.0
04 22:15 SE 12 G 17 10.00 Fair CLR 89.6 60.8 38% 90 29.93 0.0
04 21:55 SE 14 10.00 Fair CLR 89.6 60.8 38% 90 29.92 0.0
04 21:35 SE 14 10.00 Fair CLR 91.4 59 34% 91 29.91 0.0
04 21:15 SE 12 10.00 Fair CLR 91.4 59 34% 91 29.9 0.0
04 20:55 SE 12 10.00 Fair CLR 91.4 59 34% 91 29.89 0.0
04 20:35 SE 12 10.00 Fair CLR 93.2 59 32% 93 29.88 0.0
04 20:15 SE 12 10.00 Fair CLR 95 57.2 28% 94 29.88 0.0
04 19:55 SE 13 10.00 Fair CLR 96.8 55.4 25% 95 29.87 0.0
04 19:35 SE 14 G 20 10.00 Fair CLR 96.8 57.2 27% 96 29.86 0.0
04 19:15 SE 13 10.00 Fair CLR 98.6 57.2 25% 98 29.86 0.0
04 18:55 SE 9 10.00 Fair CLR 98.6 55.4 24% 97 29.86 0.0
04 18:35 SE 15 G 20 10.00 Fair CLR 98.6 57.2 25% 98 29.86 0.0
04 18:15 S 8 G 17 10.00 Fair CLR 98.6 57.2 25% 98 29.86 0.0
04 17:55 SE 15 G 18 10.00 Fair CLR 100.4 57.2 24% 100 29.86 0.0
04 17:35 SE 9 G 18 10.00 Fair CLR 100.4 55.4 22% 99 29.86 0.0
04 17:15 S 10 G 17 10.00 Fair CLR 100.4 57.2 24% 100 29.86 0.0
04 16:55 S 10 10.00 Fair CLR 100.4 59 25% 100 29.86 0.0
04 16:35 SE 13 G 17 10.00 Fair CLR 100.4 59 25% 100 29.88 0.0
04 16:15 S 10 G 18 10.00 Fair CLR 100.4 59 25% 100 29.88 0.0
04 15:55 SE 8 G 16 10.00 Fair CLR 100.4 59 25% 100 29.89 0.0
04 15:35 S 7 G 17 10.00 Fair CLR 98.6 60.8 29% 99 29.9 0.0
04 15:15 SE 9 G 17 10.00 Fair CLR 98.6 60.8 29% 99 29.9 0.0
04 14:55 SE 15 G 20 10.00 Fair CLR 98.6 60.8 29% 99 29.91 0.0
04 14:35 S 9 10.00 Fair CLR 96.8 60.8 30% 97 29.91 0.0
04 13:55 S 13 10.00 Fair CLR 95 62.6 34% 96 29.92 0.0
04 13:35 S 9 G 16 10.00 Fair CLR 95 62.6 34% 96 29.93 0.0
04 13:15 SE 10 G 17 10.00 Fair CLR 95 62.6 34% 96 29.94 0.0
04 12:55 S 10 10.00 Fair CLR 91.4 62.6 38% 92 29.94 0.0
04 12:35 SE 9 G 16 10.00 Fair CLR 91.4 62.6 38% 92 29.95 0.0
04 12:15 S 15 G 20 10.00 Fair CLR 91.4 64.4 41% 93 29.96 0.0
04 11:55 S 10 G 16 10.00 Fair CLR 89.6 64.4 43% 91 29.96 0.0
04 11:35 S 9 G 17 10.00 Fair CLR 87.8 66.2 49% 90 29.96 0.0
04 10:35 S 13 10.00 Fair CLR 86 68 55% 89 29.96 0.0
04 10:15 S 12 G 18 10.00 Fair CLR 82.4 68 62% 85 29.96 0.0
04 09:55 S 14 10.00 Fair CLR 80.6 68 66% 83 29.96 0.0
04 09:35 S 12 10.00 Fair CLR 78.8 68 70% 81 29.96 0.0
04 09:15 S 10 10.00 Fair CLR 78.8 68 70% 81 29.96 0.0
04 08:55 S 8 10.00 Fair CLR 77 66.2 69% 79 29.96 0.0
04 08:35 SE 12 10.00 Fair CLR 75.2 66.2 74% 77 29.95 0.0
04 08:15 SE 9 10.00 Fair CLR 73.4 66.2 78% 29.95 0.0
04 07:55 SE 9 10.00 Fair CLR 73.4 64.4 74% 29.94 0.0
04 07:35 SE 7 10.00 Fair CLR 71.6 64.4 78% 29.94 0.0
04 07:15 SE 7 10.00 Fair CLR 73.4 64.4 74% 29.93 0.0
04 06:55 SE 8 10.00 Fair CLR 73.4 64.4 74% 29.93 0.0
04 06:35 SE 8 10.00 Fair CLR 73.4 64.4 74% 29.93 0.0
04 06:15 SE 7 10.00 Fair CLR 73.4 66.2 78% 29.93 0.0
04 05:55 SE 7 10.00 Fair CLR 73.4 66.2 78% 29.93 0.0
04 05:35 SE 7 10.00 Fair CLR 75.2 68 78% 76 29.93 0.0
04 05:15 SE 7 10.00 Fair CLR 75.2 68 78% 76 29.92 0.0
04 04:55 SE 7 10.00 Fair CLR 75.2 68 78% 76 29.92 0.0
04 04:35 S 7 10.00 Fair CLR 77 68 74% 79 29.92 0.0
04 04:15 SE 9 10.00 Fair CLR 77 68 74% 79 29.92 0.0
04 03:55 SE 9 10.00 Fair CLR 77 68 74% 79 29.92 0.0
04 03:35 SE 10 10.00 Fair CLR 77 68 74% 79 29.92 0.0
04 03:15 SE 9 10.00 Fair CLR 77 68 74% 79 29.93 0.0
04 02:55 S 10 10.00 Fair CLR 77 68 74% 79 29.93 0.0
04 02:35 S 9 10.00 Fair CLR 78.8 68 70% 81 29.93 0.0
04 02:15 S 12 10.00 Fair CLR 78.8 68 70% 81 29.93 0.0
04 01:55 S 12 G 17 10.00 Fair CLR 78.8 68 70% 81 29.93 0.0
04 01:35 S 13 10.00 Fair CLR 78.8 68 70% 81 29.93 0.0
04 00:55 S 13 10.00 Fair CLR 80.6 68 66% 83 29.92 0.0
04 00:35 S 17 G 23 10.00 Fair CLR 80.6 68 66% 83 29.92 0.0
04 00:15 S 16 G 20 10.00 Fair CLR 80.6 68 66% 83 29.91 0.0
03 23:55 SE 16 10.00 Fair CLR 80.6 68 66% 83 29.92 0.0
03 23:35 SE 17 G 24 10.00 Fair CLR 82.4 68 62% 85 29.92 0.0
03 23:15 SE 18 G 24 10.00 Fair CLR 82.4 66.2 58% 85 29.91 0.0
03 22:55 SE 16 G 21 10.00 Fair CLR 84.2 64.4 51% 86 29.92 0.0
03 22:35 SE 17 G 22 10.00 Fair CLR 84.2 64.4 51% 86 29.92 0.0
03 22:15 SE 17 10.00 Fair CLR 86 64.4 49% 87 29.91 0.0
03 21:55 SE 16 G 21 10.00 Fair CLR 86 62.6 46% 87 29.91 0.0
03 21:35 SE 14 10.00 Fair CLR 87.8 62.6 43% 88 29.9 0.0
03 20:55 SE 15 G 22 10.00 Fair CLR 89.6 60.8 38% 90 29.89 0.0
03 20:35 SE 14 10.00 Fair CLR 89.6 60.8 38% 90 29.88 0.0
03 19:55 SE 15 G 23 10.00 Fair CLR 91.4 60.8 36% 91 29.86 0.0
03 19:35 SE 18 10.00 Fair CLR 95 60.8 32% 95 29.85 0.0
03 19:15 SE 14 G 24 10.00 Fair CLR 95 60.8 32% 95 29.85 0.0
03 18:55 SE 17 G 25 10.00 Fair CLR 96.8 60.8 30% 97 29.84 0.0
03 18:35 SE 15 G 20 10.00 Fair CLR 98.6 59 27% 98 29.84 0.0
03 18:15 SE 13 G 21 10.00 Fair CLR 98.6 57.2 25% 98 29.83 0.0
03 17:55 SE 15 G 18 10.00 Fair CLR 100.4 57.2 24% 100 29.83 0.0
03 17:35 SE 15 10.00 Fair CLR 100.4 57.2 24% 100 29.83 0.0
03 17:15 SE 14 G 18 10.00 Fair CLR 100.4 59 25% 100 29.84 0.0
03 16:55 S 13 10.00 Fair CLR 100.4 59 25% 100 29.84 0.0
03 16:35 S 12 G 18 10.00 Fair CLR 100.4 59 25% 100 29.84 0.0
03 14:15 S 8 10.00 Fair CLR 98.6 59 27% 98 29.9 0.0
03 13:55 SE 12 G 18 10.00 Fair CLR 96.8 59 28% 96 29.91 0.0
03 13:35 SE 12 10.00 Fair CLR 96.8 60.8 30% 97 29.91 0.0
03 13:15 S 8 10.00 Fair CLR 95 60.8 32% 95 29.93 0.0
03 12:55 S 8 G 21 10.00 Fair CLR 95 60.8 32% 95 29.93 0.0
03 12:35 S 7 10.00 Fair CLR 91.4 62.6 38% 92 29.94 0.0
03 12:15 S 12 G 16 10.00 Fair CLR 91.4 62.6 38% 92 29.95 0.0
03 11:55 S 13 10.00 Fair CLR 89.6 62.6 41% 90 29.95 0.0
03 11:35 S 12 G 17 10.00 Fair CLR 87.8 64.4 46% 89 29.95 0.0
03 11:15 S 14 G 18 10.00 Fair CLR 87.8 64.4 46% 89 29.96 0.0
03 10:55 S 13 G 17 10.00 Fair CLR 86 64.4 49% 87 29.96 0.0
03 10:35 S 16 G 20 10.00 Fair CLR 86 64.4 49% 87 29.96 0.0
03 10:15 SE 14 10.00 Fair CLR 82.4 64.4 55% 84 29.96 0.0
03 09:55 SE 13 10.00 Fair CLR 82.4 64.4 55% 84 29.96 0.0
03 09:35 S 14 10.00 Fair CLR 80.6 64.4 58% 82 29.96 0.0
03 09:15 S 14 G 18 10.00 Fair CLR 80.6 64.4 58% 82 29.96 0.0
03 08:55 SE 12 10.00 Fair CLR 78.8 64.4 61% 81 29.97 0.0
03 08:35 SE 9 10.00 Fair CLR 77 64.4 65% 79 29.97 0.0
03 08:15 SE 10 10.00 Fair CLR 77 64.4 65% 79 29.96 0.0
03 07:55 SE 9 10.00 Fair CLR 75.2 64.4 69% 77 29.97 0.0
03 07:35 SE 8 10.00 Fair CLR 73.4 64.4 74% 29.96 0.0
03 07:15 SE 8 10.00 Fair CLR 73.4 64.4 74% 29.96 0.0
03 06:55 S 9 10.00 Fair CLR 75.2 62.6 65% 77 29.96 0.0
03 06:35 S 9 10.00 Fair CLR 75.2 62.6 65% 77 29.96 0.0
03 06:15 SE 9 10.00 Fair CLR 77 62.6 61% 79 29.96 0.0
03 05:55 S 9 10.00 Fair CLR 77 62.6 61% 79 29.96 0.0
03 05:35 S 8 10.00 Fair CLR 77 62.6 61% 79 29.96 0.0
03 05:15 SE 8 10.00 Fair CLR 77 62.6 61% 79 29.96 0.0
03 04:55 S 7 10.00 Fair CLR 77 62.6 61% 79 29.96 0.0
03 04:35 S 8 10.00 Fair CLR 78.8 62.6 58% 80 29.96 0.0
03 04:15 S 9 10.00 Fair CLR 78.8 62.6 58% 80 29.96 0.0
03 03:55 S 9 10.00 Fair CLR 78.8 62.6 58% 80 29.96 0.0
03 03:35 S 9 10.00 Fair CLR 80.6 62.6 54% 82 29.96 0.0
03 03:15 S 12 10.00 Fair CLR 80.6 62.6 54% 82 29.96 0.0
03 02:55 S 12 10.00 Fair CLR 80.6 60.8 51% 81 29.95 0.0
03 02:35 S 13 10.00 Fair CLR 80.6 60.8 51% 81 29.95 0.0
03 02:15 SE 12 10.00 Fair CLR 82.4 60.8 48% 83 29.95 0.0
03 01:55 S 12 10.00 Fair CLR 82.4 59 45% 82 29.95 0.0
03 01:35 S 12 10.00 Fair CLR 82.4 59 45% 82 29.95 0.0
03 01:15 S 13 10.00 Fair CLR 82.4 59 45% 82 29.94 0.0
03 00:55 S 15 G 20 10.00 Fair CLR 84.2 59 43% 84 29.94 0.0
03 00:35 S 16 10.00 Fair CLR 84.2 59 43% 84 29.94 0.0
03 00:15 S 14 G 22 10.00 Fair CLR 86 59 40% 85 29.94 0.0
02 23:55 SE 15 10.00 Fair CLR 86 57.2 38% 85 29.93 0.0
02 23:35 SE 15 G 21 10.00 Fair CLR 86 57.2 38% 85 29.94 0.0
02 23:15 SE 15 G 21 10.00 Fair CLR 87.8 57.2 35% 87 29.93 0.0
02 22:55 SE 17 10.00 Fair CLR 87.8 55.4 33% 86 29.93 0.0
02 22:35 SE 17 G 22 10.00 Fair CLR 89.6 55.4 31% 88 29.93 0.0
02 22:15 SE 14 10.00 Fair CLR 89.6 55.4 31% 88 29.93 0.0
02 21:55 SE 10 G 16 10.00 Fair CLR 89.6 55.4 31% 88 29.93 0.0
02 21:35 SE 10 10.00 Fair CLR 89.6 53.6 29% 87 29.92 0.0
02 21:15 SE 12 10.00 Fair CLR 89.6 53.6 29% 87 29.91 0.0
02 20:55 SE 12 10.00 Fair CLR 91.4 53.6 28% 89 29.91 0.0
02 20:35 SE 10 10.00 Fair CLR 91.4 53.6 28% 89 29.9 0.0
02 20:15 SE 9 10.00 Fair CLR 93.2 53.6 26% 91 29.9 0.0
02 19:55 SE 9 10.00 Fair CLR 95 53.6 25% 93 29.9 0.0
02 19:35 SE 12 10.00 Fair CLR 96.8 53.6 23% 95 29.9 0.0
02 19:15 S 15 10.00 Fair CLR 96.8 51.8 22% 94 29.9 0.0
02 18:55 S 16 10.00 Fair CLR 98.6 51.8 21% 96 29.89 0.0
02 18:35 S 12 10.00 Fair CLR 98.6 51.8 21% 96 29.89 0.0
02 18:15 SE 8 G 17 10.00 Fair CLR 100.4 50 18% 97 29.89 0.0
02 17:55 S 14 10.00 Partly Cloudy SCT100 98.6 50 19% 95 29.9 0.0
02 17:35 S 14 G 22 10.00 Partly Cloudy SCT100 100.4 48.2 17% 97 29.9 0.0
02 17:15 S 8 10.00 Fair CLR 98.6 50 19% 95 29.9 0.0
02 16:55 S 13 G 20 10.00 Fair CLR 100.4 50 18% 97 29.9 0.0
02 16:35 SW 12 G 17 10.00 Partly Cloudy SCT110 98.6 50 19% 95 29.91 0.0
02 16:15 S 9 G 18 10.00 Fair CLR 98.6 50 19% 95 29.92 0.0
02 15:55 S 15 G 21 10.00 Partly Cloudy SCT100 100.4 50 18% 97 29.93 0.0
02 15:35 SE 10 10.00 Partly Cloudy SCT100 100.4 50 18% 97 29.93 0.0
02 15:15 S 7 10.00 Partly Cloudy SCT090 100.4 51.8 20% 98 29.95 0.0
02 14:55 S 10 10.00 Mostly Cloudy BKN090 98.6 51.8 21% 96 29.96 0.0
02 14:35 S 12 10.00 Partly Cloudy SCT090 96.8 51.8 22% 94 29.96 0.0
02 14:15 SW 8 G 21 10.00 Partly Cloudy SCT095 98.6 51.8 21% 96 29.97 0.0
02 13:55 SW 15 10.00 Partly Cloudy SCT085 98.6 51.8 21% 96 29.98 0.0
02 13:35 SW 10 G 17 10.00 Fair CLR 98.6 53.6 22% 96 29.99 0.0
02 13:15 S 12 G 17 10.00 Fair CLR 96.8 53.6 23% 95 30 0.0
02 12:55 S 12 G 21 10.00 Fair CLR 96.8 53.6 23% 95 30 0.0
02 12:35 SW 17 10.00 Fair CLR 96.8 55.4 25% 95 30.01 0.0
02 12:15 S 15 G 20 10.00 Fair CLR 96.8 57.2 27% 96 30.02 0.0
02 11:55 S 13 G 18 10.00 Fair CLR 95 57.2 28% 94 30.02 0.0
02 11:35 S 13 G 17 10.00 Fair CLR 93.2 59 32% 93 30.03 0.0
02 11:15 S 12 G 18 10.00 Fair CLR 91.4 59 34% 91 30.03 0.0
02 10:55 S 13 10.00 Fair CLR 89.6 60.8 38% 90 30.03 0.0
02 10:35 S 12 G 18 10.00 Fair CLR 87.8 60.8 40% 88 30.03 0.0
02 10:15 S 13 10.00 Fair CLR 86 60.8 43% 86 30.03 0.0
02 09:55 S 14 10.00 Fair CLR 86 60.8 43% 86 30.03 0.0
02 09:35 S 10 10.00 Fair CLR 84.2 60.8 45% 84 30.04 0.0
02 09:15 S 10 10.00 Fair CLR 82.4 60.8 48% 83 30.04 0.0
02 08:55 S 10 10.00 Fair CLR 80.6 60.8 51% 81 30.04 0.0
02 08:35 SE 10 10.00 Partly Cloudy SCT100 80.6 60.8 51% 81 30.04 0.0
Date Time (cdt) Wind (mph) Vis. (mi.) Weather Sky Cond. Air Dwpt Max. Min. Relative Humidity Wind Chill (°F) Heat Index (°F) altimeter (in) sea level (mb) 1 hr 3 hr 6 hr
6 hour
Temperature (ºF) Pressure Precipitation (in)